sensor_id;sensor_type;location;lat;lon;timestamp;P1;durP1;ratioP1;P2;durP2;ratioP2
66127;SDS011;52925;52.436;-1.952;2024-02-23T05:54:01;0.70;;;0.40;;
66127;SDS011;52925;52.436;-1.952;2024-02-23T05:55:22;1.33;;;0.35;;
66127;SDS011;52925;52.436;-1.952;2024-02-23T05:56:43;0.65;;;0.25;;
66127;SDS011;52925;52.436;-1.952;2024-02-23T05:58:05;2.33;;;0.50;;
66127;SDS011;52925;52.436;-1.952;2024-02-23T05:59:25;0.45;;;0.20;;
66127;SDS011;52925;52.436;-1.952;2024-02-23T06:00:46;0.60;;;0.20;;
66127;SDS011;52925;52.436;-1.952;2024-02-23T06:02:06;0.47;;;0.30;;
66127;SDS011;52925;52.436;-1.952;2024-02-23T06:03:27;1.02;;;0.40;;
66127;SDS011;52925;52.436;-1.952;2024-02-23T06:04:47;0.93;;;0.20;;
66127;SDS011;52925;52.436;-1.952;2024-02-23T06:06:08;1.13;;;0.30;;
66127;SDS011;52925;52.436;-1.952;2024-02-23T06:07:28;2.67;;;0.35;;
66127;SDS011;52925;52.436;-1.952;2024-02-23T06:08:49;1.27;;;0.40;;
66127;SDS011;52925;52.436;-1.952;2024-02-23T06:10:11;0.45;;;0.20;;
66127;SDS011;52925;52.436;-1.952;2024-02-23T06:11:31;1.48;;;0.30;;
66127;SDS011;52925;52.436;-1.952;2024-02-23T06:12:51;0.77;;;0.30;;
66127;SDS011;52925;52.436;-1.952;2024-02-23T06:14:13;1.38;;;0.43;;
66127;SDS011;52925;52.436;-1.952;2024-02-23T06:15:33;1.52;;;0.40;;
66127;SDS011;52925;52.436;-1.952;2024-02-23T06:16:53;2.78;;;0.32;;
66127;SDS011;52925;52.436;-1.952;2024-02-23T06:18:13;1.35;;;0.20;;
66127;SDS011;52925;52.436;-1.952;2024-02-23T06:19:34;2.80;;;0.60;;
66127;SDS011;52925;52.436;-1.952;2024-02-23T06:20:53;0.90;;;0.43;;
66127;SDS011;52925;52.436;-1.952;2024-02-23T06:22:14;1.42;;;0.50;;
66127;SDS011;52925;52.436;-1.952;2024-02-23T06:23:39;0.93;;;0.30;;
66127;SDS011;52925;52.436;-1.952;2024-02-23T06:25:00;1.42;;;0.40;;
66127;SDS011;52925;52.436;-1.952;2024-02-23T06:26:21;1.48;;;0.50;;
66127;SDS011;52925;52.436;-1.952;2024-02-23T06:27:42;0.38;;;0.22;;
66127;SDS011;52925;52.436;-1.952;2024-02-23T06:29:02;1.02;;;0.30;;
66127;SDS011;52925;52.436;-1.952;2024-02-23T06:30:25;2.28;;;0.40;;
66127;SDS011;52925;52.436;-1.952;2024-02-23T06:31:44;1.45;;;0.40;;
66127;SDS011;52925;52.436;-1.952;2024-02-23T06:33:08;1.25;;;0.40;;
66127;SDS011;52925;52.436;-1.952;2024-02-23T06:34:27;2.35;;;0.63;;
66127;SDS011;52925;52.436;-1.952;2024-02-23T06:35:48;1.55;;;0.50;;
66127;SDS011;52925;52.436;-1.952;2024-02-23T06:37:08;1.00;;;0.30;;
66127;SDS011;52925;52.436;-1.952;2024-02-23T06:38:29;1.15;;;0.40;;
66127;SDS011;52925;52.436;-1.952;2024-02-23T06:39:49;2.22;;;0.40;;
66127;SDS011;52925;52.436;-1.952;2024-02-23T06:41:13;0.50;;;0.30;;
66127;SDS011;52925;52.436;-1.952;2024-02-23T06:42:35;0.88;;;0.35;;
66127;SDS011;52925;52.436;-1.952;2024-02-23T06:43:56;0.80;;;0.35;;
66127;SDS011;52925;52.436;-1.952;2024-02-23T06:45:16;0.90;;;0.30;;
66127;SDS011;52925;52.436;-1.952;2024-02-23T06:46:38;1.95;;;0.55;;
66127;SDS011;52925;52.436;-1.952;2024-02-23T06:47:58;1.50;;;0.88;;
66127;SDS011;52925;52.436;-1.952;2024-02-23T06:49:18;1.33;;;0.55;;
66127;SDS011;52925;52.436;-1.952;2024-02-23T06:50:38;2.28;;;0.50;;
66127;SDS011;52925;52.436;-1.952;2024-02-23T06:51:59;2.72;;;0.40;;
66127;SDS011;52925;52.436;-1.952;2024-02-23T06:53:19;1.92;;;0.50;;
66127;SDS011;52925;52.436;-1.952;2024-02-23T06:54:39;1.02;;;0.40;;
66127;SDS011;52925;52.436;-1.952;2024-02-23T06:55:59;1.45;;;0.40;;
66127;SDS011;52925;52.436;-1.952;2024-02-23T06:57:20;1.55;;;0.40;;
66127;SDS011;52925;52.436;-1.952;2024-02-23T06:58:42;2.67;;;0.52;;
66127;SDS011;52925;52.436;-1.952;2024-02-23T07:00:05;1.92;;;0.40;;
66127;SDS011;52925;52.436;-1.952;2024-02-23T07:01:26;0.65;;;0.43;;
66127;SDS011;52925;52.436;-1.952;2024-02-23T07:02:47;0.57;;;0.35;;
66127;SDS011;52925;52.436;-1.952;2024-02-23T07:04:07;1.70;;;0.40;;
66127;SDS011;52925;52.436;-1.952;2024-02-23T07:05:28;1.38;;;0.40;;
66127;SDS011;52925;52.436;-1.952;2024-02-23T07:06:48;3.88;;;0.73;;
66127;SDS011;52925;52.436;-1.952;2024-02-23T07:08:08;4.43;;;0.43;;
66127;SDS011;52925;52.436;-1.952;2024-02-23T07:09:28;1.15;;;0.40;;
66127;SDS011;52925;52.436;-1.952;2024-02-23T07:10:49;1.40;;;0.40;;
66127;SDS011;52925;52.436;-1.952;2024-02-23T07:12:10;1.83;;;0.47;;
66127;SDS011;52925;52.436;-1.952;2024-02-23T07:13:32;3.08;;;0.60;;
66127;SDS011;52925;52.436;-1.952;2024-02-23T07:14:54;1.45;;;0.65;;
66127;SDS011;52925;52.436;-1.952;2024-02-23T07:16:14;4.18;;;0.50;;
66127;SDS011;52925;52.436;-1.952;2024-02-23T19:44:06;55.63;;;34.73;;
66127;SDS011;52925;52.436;-1.952;2024-02-23T19:45:28;50.42;;;32.13;;
66127;SDS011;52925;52.436;-1.952;2024-02-23T19:46:48;52.38;;;32.38;;
66127;SDS011;52925;52.436;-1.952;2024-02-23T19:48:09;47.42;;;31.15;;
66127;SDS011;52925;52.436;-1.952;2024-02-23T19:49:29;43.38;;;29.50;;
66127;SDS011;52925;52.436;-1.952;2024-02-23T19:50:50;46.13;;;29.50;;
66127;SDS011;52925;52.436;-1.952;2024-02-23T19:52:10;50.80;;;31.42;;
66127;SDS011;52925;52.436;-1.952;2024-02-23T19:53:33;48.63;;;31.50;;
66127;SDS011;52925;52.436;-1.952;2024-02-23T19:54:53;53.10;;;35.15;;
66127;SDS011;52925;52.436;-1.952;2024-02-23T19:56:14;58.30;;;37.15;;
66127;SDS011;52925;52.436;-1.952;2024-02-23T19:57:34;55.88;;;36.70;;
66127;SDS011;52925;52.436;-1.952;2024-02-23T19:58:55;55.80;;;36.05;;
66127;SDS011;52925;52.436;-1.952;2024-02-23T20:00:18;60.72;;;40.03;;
66127;SDS011;52925;52.436;-1.952;2024-02-23T20:01:39;58.15;;;39.10;;
66127;SDS011;52925;52.436;-1.952;2024-02-23T20:02:59;57.40;;;37.55;;
66127;SDS011;52925;52.436;-1.952;2024-02-23T20:04:20;57.00;;;37.92;;
66127;SDS011;52925;52.436;-1.952;2024-02-23T20:05:44;55.40;;;37.13;;
66127;SDS011;52925;52.436;-1.952;2024-02-23T20:07:06;54.65;;;37.53;;
66127;SDS011;52925;52.436;-1.952;2024-02-23T20:08:28;53.53;;;36.22;;
66127;SDS011;52925;52.436;-1.952;2024-02-23T20:11:37;50.38;;;34.50;;
66127;SDS011;52925;52.436;-1.952;2024-02-23T20:12:57;45.65;;;32.58;;
66127;SDS011;52925;52.436;-1.952;2024-02-23T20:14:18;48.85;;;32.85;;
66127;SDS011;52925;52.436;-1.952;2024-02-23T20:15:41;46.38;;;31.70;;
66127;SDS011;52925;52.436;-1.952;2024-02-23T20:17:03;42.22;;;30.05;;
66127;SDS011;52925;52.436;-1.952;2024-02-23T20:18:34;42.13;;;29.65;;
66127;SDS011;52925;52.436;-1.952;2024-02-23T20:19:56;39.80;;;28.17;;
66127;SDS011;52925;52.436;-1.952;2024-02-23T20:21:16;39.78;;;28.63;;
66127;SDS011;52925;52.436;-1.952;2024-02-23T20:22:37;40.22;;;27.55;;
66127;SDS011;52925;52.436;-1.952;2024-02-23T20:23:58;39.05;;;26.92;;
66127;SDS011;52925;52.436;-1.952;2024-02-23T20:25:19;38.80;;;26.98;;
66127;SDS011;52925;52.436;-1.952;2024-02-23T20:26:39;37.42;;;25.65;;
66127;SDS011;52925;52.436;-1.952;2024-02-23T20:28:00;34.88;;;25.35;;
66127;SDS011;52925;52.436;-1.952;2024-02-23T20:34:50;30.30;;;21.13;;
66127;SDS011;52925;52.436;-1.952;2024-02-23T20:36:12;28.80;;;20.70;;
